createdAt,value
2024-03-28T00:00:57.253Z,15.61
2024-03-28T00:01:55.336Z,15.61
2024-03-28T00:02:55.348Z,15.66
2024-03-28T00:03:55.322Z,15.66
2024-03-28T00:04:55.293Z,15.63
2024-03-28T00:05:55.283Z,15.57
2024-03-28T00:06:55.272Z,15.46
2024-03-28T00:07:55.287Z,15.39
2024-03-28T00:08:55.700Z,15.33
2024-03-28T00:09:55.238Z,15.27
2024-03-28T00:10:55.222Z,15.21
2024-03-28T00:11:55.568Z,15.11
2024-03-28T00:12:55.207Z,15.12
2024-03-28T00:13:55.186Z,15.11
2024-03-28T00:14:55.186Z,15.11
2024-03-28T00:15:55.155Z,15.15
2024-03-28T00:16:55.170Z,15.17
2024-03-28T00:17:55.126Z,15.19
2024-03-28T00:18:55.144Z,15.20
2024-03-28T00:19:55.108Z,15.17
2024-03-28T00:20:55.173Z,15.15
2024-03-28T00:21:55.587Z,15.12
2024-03-28T00:22:56.571Z,15.09
2024-03-28T00:23:55.189Z,15.05
2024-03-28T00:24:56.570Z,15.02
2024-03-28T00:25:55.031Z,14.99
2024-03-28T00:26:55.290Z,14.98
2024-03-28T00:27:55.019Z,14.94
2024-03-28T00:28:54.980Z,14.94
2024-03-28T00:29:54.987Z,14.98
2024-03-28T00:30:54.955Z,14.95
2024-03-28T00:31:54.938Z,14.94
2024-03-28T00:32:54.934Z,14.98
2024-03-28T00:33:54.919Z,14.94
2024-03-28T00:34:54.902Z,14.95
2024-03-28T00:35:54.885Z,14.98
2024-03-28T00:36:54.870Z,14.99
2024-03-28T00:37:54.858Z,15.03
2024-03-28T00:38:54.852Z,15.11
2024-03-28T00:39:54.848Z,15.19
2024-03-28T00:40:54.847Z,15.24
2024-03-28T00:41:55.361Z,15.33
2024-03-28T00:42:54.788Z,15.38
2024-03-28T00:43:54.776Z,15.45
2024-03-28T00:44:54.774Z,15.49
2024-03-28T00:45:54.769Z,15.57
2024-03-28T00:46:54.743Z,15.64
2024-03-28T00:47:54.715Z,15.68
2024-03-28T00:48:54.714Z,15.74
2024-03-28T00:49:54.695Z,15.79
2024-03-28T00:50:54.690Z,15.84
2024-03-28T00:51:54.673Z,15.92
2024-03-28T00:52:54.667Z,15.92
2024-03-28T00:53:54.635Z,15.99
2024-03-28T00:54:54.636Z,16.03
2024-03-28T00:55:56.434Z,16.06
2024-03-28T00:56:54.795Z,16.09
2024-03-28T00:57:55.203Z,16.09
2024-03-28T00:58:54.972Z,16.14
2024-03-28T00:59:54.590Z,16.18
2024-03-28T01:00:54.547Z,16.18
2024-03-28T01:01:54.532Z,16.18
2024-03-28T01:02:54.543Z,16.15
2024-03-28T01:03:54.508Z,16.18
2024-03-28T01:04:54.483Z,16.16
2024-03-28T01:05:54.480Z,16.14
2024-03-28T01:06:54.459Z,16.12
2024-03-28T01:07:54.446Z,16.12
2024-03-28T01:08:54.495Z,16.11
2024-03-28T01:09:54.431Z,16.09
2024-03-28T01:10:54.418Z,16.06
2024-03-28T01:11:54.415Z,16.00
2024-03-28T01:12:54.391Z,15.99
2024-03-28T01:13:54.374Z,15.97
2024-03-28T01:14:54.388Z,15.94
2024-03-28T01:15:54.344Z,15.88
2024-03-28T01:16:54.333Z,15.92
2024-03-28T01:17:54.331Z,15.88
2024-03-28T01:18:54.291Z,15.82
2024-03-28T01:19:54.298Z,15.78
2024-03-28T01:20:54.311Z,15.76
2024-03-28T01:21:54.269Z,15.75
2024-03-28T01:22:54.244Z,15.74
2024-03-28T01:23:54.235Z,15.74
2024-03-28T01:24:54.217Z,15.74
2024-03-28T01:25:54.223Z,15.68
2024-03-28T01:26:54.227Z,15.68
2024-03-28T01:27:54.167Z,15.66
2024-03-28T01:28:54.180Z,15.67
2024-03-28T01:29:54.197Z,15.68
2024-03-28T01:30:54.137Z,15.70
2024-03-28T01:31:54.117Z,15.70
2024-03-28T01:32:54.128Z,15.68
2024-03-28T01:33:54.101Z,15.66
2024-03-28T01:34:54.074Z,15.66
2024-03-28T01:35:54.078Z,15.67
2024-03-28T01:36:54.064Z,15.64
2024-03-28T01:37:54.063Z,15.63
2024-03-28T01:38:54.062Z,15.63
2024-03-28T01:39:54.025Z,15.60
2024-03-28T01:40:53.995Z,15.57
2024-03-28T01:41:53.981Z,15.54
2024-03-28T01:42:53.977Z,15.54
2024-03-28T01:43:53.969Z,15.51
2024-03-28T01:44:53.977Z,15.48
2024-03-28T01:45:53.943Z,15.48
2024-03-28T01:47:09.017Z,15.45
2024-03-28T01:47:54.404Z,15.42
2024-03-28T01:48:53.882Z,15.43
2024-03-28T01:49:53.889Z,15.41
2024-03-28T01:50:53.898Z,15.39
2024-03-28T01:51:53.846Z,15.41
2024-03-28T01:52:53.897Z,15.39
2024-03-28T01:53:53.853Z,15.39
2024-03-28T01:54:53.820Z,15.41
2024-03-28T01:55:53.834Z,15.38
2024-03-28T01:56:53.793Z,15.41
2024-03-28T01:57:53.767Z,15.36
2024-03-28T01:58:53.751Z,15.36
2024-03-28T01:59:53.755Z,15.35
2024-03-28T02:00:53.725Z,15.33
2024-03-28T02:01:53.719Z,15.31
2024-03-28T02:02:53.711Z,15.33
2024-03-28T02:03:53.694Z,15.30
2024-03-28T02:04:53.675Z,15.31
2024-03-28T02:05:53.658Z,15.28
2024-03-28T02:06:53.655Z,15.30
2024-03-28T02:07:53.641Z,15.27
2024-03-28T02:08:53.639Z,15.30
2024-03-28T02:09:53.618Z,15.26
2024-03-28T02:10:53.584Z,15.26
2024-03-28T02:11:53.584Z,15.24
2024-03-28T02:12:53.590Z,15.27
2024-03-28T02:13:53.547Z,15.26
2024-03-28T02:14:53.632Z,15.26
2024-03-28T02:15:53.540Z,15.23
2024-03-28T02:16:53.503Z,15.23
2024-03-28T02:17:53.500Z,15.21
2024-03-28T02:18:53.488Z,15.21
2024-03-28T02:19:53.489Z,15.20
2024-03-28T02:20:53.483Z,15.21
2024-03-28T02:21:53.480Z,15.19
2024-03-28T02:22:53.427Z,15.20
2024-03-28T02:23:53.429Z,15.17
2024-03-28T02:24:53.410Z,15.19
2024-03-28T02:25:53.412Z,15.15
2024-03-28T02:26:53.432Z,15.13
2024-03-28T02:27:53.368Z,15.12
2024-03-28T02:28:53.358Z,15.12
2024-03-28T02:29:53.348Z,15.08
2024-03-28T02:30:53.333Z,15.09
2024-03-28T02:31:53.323Z,15.08
2024-03-28T02:32:53.350Z,15.08
2024-03-28T02:33:53.295Z,15.06
2024-03-28T02:34:53.366Z,15.02
2024-03-28T02:35:53.259Z,15.02
2024-03-28T02:36:53.240Z,14.99
2024-03-28T02:37:53.230Z,14.99
2024-03-28T02:38:53.273Z,14.98
2024-03-28T02:39:53.203Z,14.98
2024-03-28T02:40:53.182Z,14.91
2024-03-28T02:41:53.177Z,14.91
2024-03-28T02:42:53.149Z,14.87
2024-03-28T02:43:53.180Z,14.84
2024-03-28T02:44:53.381Z,14.83
2024-03-28T02:45:53.129Z,14.80
2024-03-28T02:46:53.116Z,14.74
2024-03-28T02:47:53.094Z,14.75
2024-03-28T02:48:53.104Z,14.74
2024-03-28T02:49:53.074Z,14.72
2024-03-28T02:50:53.070Z,14.68
2024-03-28T02:51:53.053Z,14.74
2024-03-28T02:52:53.046Z,14.68
2024-03-28T02:53:53.071Z,14.68
2024-03-28T02:54:53.010Z,14.64
2024-03-28T02:55:52.981Z,14.62
2024-03-28T02:56:53.039Z,14.60
2024-03-28T02:57:52.973Z,14.52
2024-03-28T02:58:52.952Z,14.50
2024-03-28T02:59:52.932Z,14.52
2024-03-28T03:00:52.920Z,14.52
2024-03-28T03:01:52.922Z,14.47
2024-03-28T03:02:52.950Z,14.46
2024-03-28T03:03:52.891Z,14.43
2024-03-28T03:04:52.887Z,14.35
2024-03-28T03:05:52.870Z,14.29
2024-03-28T03:06:52.857Z,14.25
2024-03-28T03:07:52.872Z,14.14
2024-03-28T03:08:53.126Z,14.14
2024-03-28T03:09:52.804Z,14.12
2024-03-28T03:10:52.808Z,14.10
2024-03-28T03:11:52.777Z,14.09
2024-03-28T03:12:52.801Z,14.12
2024-03-28T03:13:52.751Z,14.07
2024-03-28T03:14:52.786Z,14.09
2024-03-28T03:15:52.743Z,14.06
2024-03-28T03:16:52.718Z,14.07
2024-03-28T03:17:52.727Z,14.10
2024-03-28T03:18:52.718Z,14.09
2024-03-28T03:19:52.661Z,14.14
2024-03-28T03:20:53.095Z,14.13
2024-03-28T03:21:52.632Z,14.13
2024-03-28T03:22:52.635Z,14.13
2024-03-28T03:23:52.610Z,14.13
2024-03-28T03:24:52.603Z,14.13
2024-03-28T03:25:52.593Z,14.13
2024-03-28T03:26:52.580Z,14.09
2024-03-28T03:27:52.563Z,14.09
2024-03-28T03:28:52.539Z,14.02
2024-03-28T03:29:52.525Z,13.96
2024-03-28T03:30:52.505Z,13.91
2024-03-28T03:31:52.507Z,13.87
2024-03-28T03:32:52.499Z,13.79
2024-03-28T03:33:52.478Z,13.73
2024-03-28T03:34:52.473Z,13.69
2024-03-28T03:35:52.434Z,13.61
2024-03-28T03:36:52.448Z,13.58
2024-03-28T03:37:52.422Z,13.54
2024-03-28T03:38:52.412Z,13.49
2024-03-28T03:39:52.396Z,13.49
2024-03-28T03:40:52.380Z,13.46
2024-03-28T03:41:52.358Z,13.41
2024-03-28T03:42:52.342Z,13.38
2024-03-28T03:43:52.422Z,13.30
2024-03-28T03:44:52.324Z,13.20
2024-03-28T03:45:52.305Z,13.14
2024-03-28T03:46:52.338Z,13.07
2024-03-28T03:47:52.291Z,12.99
2024-03-28T03:48:52.272Z,12.96
2024-03-28T03:49:52.287Z,12.89
2024-03-28T03:50:52.237Z,12.85
2024-03-28T03:51:52.249Z,12.79
2024-03-28T03:52:52.229Z,12.77
2024-03-28T03:53:52.203Z,12.70
2024-03-28T03:54:52.185Z,12.64
2024-03-28T03:55:52.170Z,12.60
2024-03-28T03:56:52.173Z,12.51
2024-03-28T03:57:52.154Z,12.51
2024-03-28T03:58:52.134Z,12.42
2024-03-28T03:59:52.140Z,12.42
2024-03-28T04:00:52.114Z,12.42
2024-03-28T04:01:52.133Z,12.39
2024-03-28T04:02:52.076Z,12.39
2024-03-28T04:03:52.081Z,12.38
2024-03-28T04:04:52.053Z,12.37
2024-03-28T04:05:52.076Z,12.33
2024-03-28T04:06:52.016Z,12.33
2024-03-28T04:07:52.013Z,12.34
2024-03-28T04:08:52.003Z,12.31
2024-03-28T04:09:52.004Z,12.27
2024-03-28T04:10:51.985Z,12.27
2024-03-28T04:11:51.967Z,12.26
2024-03-28T04:12:51.939Z,12.23
2024-03-28T04:13:51.932Z,12.24
2024-03-28T04:14:51.928Z,12.20
2024-03-28T04:15:51.918Z,12.24
2024-03-28T04:16:51.921Z,12.24
2024-03-28T04:17:51.874Z,12.26
2024-03-28T04:18:51.884Z,12.26
2024-03-28T04:19:51.842Z,12.23
2024-03-28T04:20:51.842Z,12.24
2024-03-28T04:21:51.833Z,12.26
2024-03-28T04:22:51.840Z,12.29
2024-03-28T04:23:51.830Z,12.26
2024-03-28T04:24:51.781Z,12.24
2024-03-28T04:25:51.771Z,12.27
2024-03-28T04:26:51.776Z,12.30
2024-03-28T04:27:51.750Z,12.30
2024-03-28T04:28:51.860Z,12.31
2024-03-28T04:29:56.273Z,12.39
2024-03-28T04:30:51.814Z,12.42
2024-03-28T04:31:51.691Z,12.42
2024-03-28T04:32:51.694Z,12.45
2024-03-28T04:33:51.658Z,12.42
2024-03-28T04:34:51.646Z,12.38
2024-03-28T04:35:51.633Z,12.44
2024-03-28T04:36:51.649Z,12.42
2024-03-28T04:37:51.622Z,12.39
2024-03-28T04:38:51.609Z,12.34
2024-03-28T04:39:51.590Z,12.33
2024-03-28T04:40:51.579Z,12.33
2024-03-28T04:41:51.632Z,12.27
2024-03-28T04:42:51.659Z,12.26
2024-03-28T04:43:51.563Z,12.23
2024-03-28T04:44:51.515Z,12.20
2024-03-28T04:45:51.521Z,12.12
2024-03-28T04:46:51.490Z,12.12
2024-03-28T04:47:51.486Z,12.05
2024-03-28T04:48:51.460Z,12.04
2024-03-28T04:49:51.446Z,12.01
2024-03-28T04:50:51.447Z,11.97
2024-03-28T04:51:51.419Z,11.89
2024-03-28T04:52:51.644Z,11.87
2024-03-28T04:53:51.392Z,11.85
2024-03-28T04:54:51.383Z,11.80
2024-03-28T04:55:51.377Z,11.77
2024-03-28T04:56:51.357Z,11.74
2024-03-28T04:57:51.343Z,11.70
2024-03-28T04:58:51.322Z,11.67
2024-03-28T04:59:51.336Z,11.64
2024-03-28T05:00:51.293Z,11.61
2024-03-28T05:01:51.288Z,11.56
2024-03-28T05:02:51.306Z,11.52
2024-03-28T05:03:51.267Z,11.52
2024-03-28T05:04:51.260Z,11.52
2024-03-28T05:05:51.215Z,11.52
2024-03-28T05:06:51.520Z,11.56
2024-03-28T05:07:51.206Z,11.56
2024-03-28T05:08:51.193Z,11.67
2024-03-28T05:09:51.179Z,11.65
2024-03-28T05:10:51.176Z,11.67
2024-03-28T05:11:51.180Z,11.65
2024-03-28T05:12:51.136Z,11.64
2024-03-28T05:13:51.119Z,11.57
2024-03-28T05:14:51.128Z,11.57
2024-03-28T05:15:51.107Z,11.62
2024-03-28T05:16:51.088Z,11.65
2024-03-28T05:17:51.073Z,11.68
2024-03-28T05:18:51.051Z,11.67
2024-03-28T05:19:51.068Z,11.68
2024-03-28T05:20:51.026Z,11.67
2024-03-28T05:21:51.016Z,11.70
2024-03-28T05:22:50.998Z,11.71
2024-03-28T05:23:50.981Z,11.77
2024-03-28T05:24:50.989Z,11.78
2024-03-28T05:25:50.984Z,11.82
2024-03-28T05:26:50.957Z,11.83
2024-03-28T05:27:50.942Z,11.86
2024-03-28T05:28:50.927Z,11.97
2024-03-28T05:29:50.915Z,11.99
2024-03-28T05:30:50.902Z,12.05
2024-03-28T05:31:50.915Z,12.08
2024-03-28T05:32:50.873Z,12.09
2024-03-28T05:33:50.851Z,12.13
2024-03-28T05:34:50.838Z,12.19
2024-03-28T05:35:50.843Z,12.19
2024-03-28T05:36:50.816Z,12.16
2024-03-28T05:37:50.793Z,12.12
2024-03-28T05:38:50.783Z,12.12
2024-03-28T05:39:50.773Z,12.12
2024-03-28T05:40:50.754Z,12.11
2024-03-28T05:41:50.766Z,12.11
2024-03-28T05:42:50.729Z,12.13
2024-03-28T05:43:50.723Z,12.15
2024-03-28T05:44:50.731Z,12.15
2024-03-28T05:45:50.695Z,12.19
2024-03-28T05:46:50.710Z,12.19
2024-03-28T05:47:50.695Z,12.21
2024-03-28T05:48:50.690Z,12.21
2024-03-28T05:49:50.655Z,12.21
2024-03-28T05:50:50.628Z,12.20
2024-03-28T05:51:50.603Z,12.21
2024-03-28T05:52:50.598Z,12.23
2024-03-28T05:53:50.609Z,12.21
2024-03-28T05:54:50.603Z,12.23
2024-03-28T05:55:50.548Z,12.23
2024-03-28T05:56:50.557Z,12.21
2024-03-28T05:57:50.535Z,12.19
2024-03-28T05:58:50.523Z,12.11
2024-03-28T05:59:50.507Z,12.11
2024-03-28T06:00:51.104Z,12.05
2024-03-28T06:01:50.473Z,12.02
2024-03-28T06:02:50.460Z,12.04
2024-03-28T06:03:50.442Z,11.99
2024-03-28T06:04:50.439Z,11.93
2024-03-28T06:05:50.421Z,11.90
2024-03-28T06:06:50.430Z,11.90
2024-03-28T06:07:50.394Z,11.87
2024-03-28T06:08:50.392Z,11.90
2024-03-28T06:09:50.370Z,11.89
2024-03-28T06:10:50.568Z,11.89
2024-03-28T06:11:50.364Z,11.90
2024-03-28T06:12:50.335Z,11.94
2024-03-28T06:13:50.313Z,11.99
2024-03-28T06:14:50.307Z,12.02
2024-03-28T06:15:50.288Z,12.13
2024-03-28T06:16:50.571Z,12.26
2024-03-28T06:17:50.254Z,12.39
2024-03-28T06:18:50.254Z,12.51
2024-03-28T06:19:50.231Z,12.67
2024-03-28T06:20:50.212Z,12.84
2024-03-28T06:21:50.214Z,12.99
2024-03-28T06:22:50.198Z,13.14
2024-03-28T06:23:50.208Z,13.32
2024-03-28T06:24:50.239Z,13.46
2024-03-28T06:25:50.185Z,13.58
2024-03-28T06:26:50.181Z,13.69
2024-03-28T06:27:50.134Z,13.83
2024-03-28T06:28:50.115Z,13.81
2024-03-28T06:29:50.123Z,13.88
2024-03-28T06:30:50.116Z,13.89
2024-03-28T06:31:50.065Z,13.96
2024-03-28T06:32:50.186Z,14.04
2024-03-28T06:33:50.041Z,14.13
2024-03-28T06:34:50.063Z,14.19
2024-03-28T06:35:50.007Z,14.31
2024-03-28T06:36:49.997Z,15.05
2024-03-28T06:37:50.004Z,15.52
2024-03-28T06:38:49.980Z,15.33
2024-03-28T06:39:49.960Z,15.31
2024-03-28T06:40:49.951Z,15.19
2024-03-28T06:41:49.936Z,15.41
2024-03-28T06:42:49.920Z,15.74
2024-03-28T06:43:49.937Z,17.51
2024-03-28T06:44:49.903Z,17.25
2024-03-28T06:45:49.879Z,18.24
2024-03-28T06:46:49.859Z,19.98
2024-03-28T06:47:49.857Z,21.54
2024-03-28T06:48:52.150Z,22.99
2024-03-28T06:49:49.834Z,24.39
2024-03-28T06:50:49.811Z,25.65
2024-03-28T06:51:49.813Z,26.89
2024-03-28T06:52:49.795Z,27.98
2024-03-28T06:53:49.771Z,28.91
2024-03-28T06:54:50.897Z,29.37
2024-03-28T06:55:49.741Z,29.63
2024-03-28T06:56:49.770Z,30.83
2024-03-28T06:57:49.713Z,31.88
2024-03-28T06:58:49.705Z,32.93
2024-03-28T06:59:50.164Z,33.98
2024-03-28T07:00:49.688Z,35.10
2024-03-28T07:01:49.685Z,35.74
2024-03-28T07:02:49.643Z,34.74
2024-03-28T07:03:49.627Z,35.99
2024-03-28T07:04:49.635Z,36.90
2024-03-28T07:05:49.646Z,37.74
2024-03-28T07:06:49.620Z,38.34
2024-03-28T07:07:49.590Z,36.63
2024-03-28T07:08:49.599Z,34.38
2024-03-28T07:09:49.562Z,32.47
2024-03-28T07:10:49.577Z,30.81
2024-03-28T07:11:49.611Z,29.47
2024-03-28T07:12:49.525Z,28.31
2024-03-28T07:13:50.915Z,27.35
2024-03-28T07:14:49.519Z,26.61
2024-03-28T07:15:49.473Z,25.89
2024-03-28T07:16:49.480Z,25.22
2024-03-28T07:17:49.524Z,24.73
2024-03-28T07:18:49.471Z,24.59
2024-03-28T07:19:49.448Z,24.52
2024-03-28T07:20:49.477Z,24.80
2024-03-28T07:21:49.393Z,24.63
2024-03-28T07:22:49.405Z,24.47
2024-03-28T07:23:49.364Z,24.35
2024-03-28T07:24:49.363Z,24.31
2024-03-28T07:25:49.339Z,24.32
2024-03-28T07:26:49.350Z,24.38
2024-03-28T07:27:49.336Z,24.64
2024-03-28T07:28:49.323Z,26.32
2024-03-28T07:29:49.282Z,26.02
2024-03-28T07:30:49.280Z,29.25
2024-03-28T07:31:49.922Z,32.10
2024-03-28T07:32:49.264Z,34.31
2024-03-28T07:33:49.259Z,36.17
2024-03-28T07:34:49.219Z,37.58
2024-03-28T07:35:49.205Z,38.61
2024-03-28T07:36:49.205Z,36.87
2024-03-28T07:37:49.166Z,35.17
2024-03-28T07:38:49.325Z,34.46
2024-03-28T07:39:49.154Z,35.33
2024-03-28T07:40:49.165Z,35.44
2024-03-28T07:41:49.122Z,34.32
2024-03-28T07:42:49.110Z,32.67
2024-03-28T07:43:49.093Z,31.42
2024-03-28T07:44:49.096Z,30.38
2024-03-28T07:45:49.069Z,30.18
2024-03-28T07:46:49.062Z,30.26
2024-03-28T07:47:49.044Z,30.29
2024-03-28T07:48:49.029Z,29.99
2024-03-28T07:49:49.050Z,29.33
2024-03-28T07:50:49.049Z,29.11
2024-03-28T07:51:48.979Z,29.01
2024-03-28T07:52:49.008Z,28.70
2024-03-28T07:53:48.961Z,28.32
2024-03-28T07:54:48.987Z,28.32
2024-03-28T07:55:48.937Z,28.46
2024-03-28T07:56:48.926Z,28.62
2024-03-28T07:57:48.892Z,28.82
2024-03-28T07:58:48.894Z,28.77
2024-03-28T07:59:48.883Z,28.85
2024-03-28T08:00:50.947Z,29.15
2024-03-28T08:01:48.847Z,29.43
2024-03-28T08:02:48.843Z,29.35
2024-03-28T08:03:49.912Z,29.75
2024-03-28T08:04:48.818Z,30.02
2024-03-28T08:05:48.810Z,30.47
2024-03-28T08:06:48.780Z,30.57
2024-03-28T08:07:48.760Z,30.27
2024-03-28T08:08:48.757Z,31.04
2024-03-28T08:09:49.275Z,31.64
2024-03-28T08:10:48.728Z,31.35
2024-03-28T08:11:48.718Z,30.86
2024-03-28T08:12:49.408Z,30.62
2024-03-28T08:13:48.675Z,30.53
2024-03-28T08:14:48.691Z,30.46
2024-03-28T08:15:48.705Z,30.50
2024-03-28T08:16:48.662Z,31.11
2024-03-28T08:17:48.637Z,30.57
2024-03-28T08:18:48.619Z,30.08
2024-03-28T08:19:48.610Z,29.66
2024-03-28T08:20:48.607Z,29.53
2024-03-28T08:21:48.596Z,31.08
2024-03-28T08:22:48.584Z,30.37
2024-03-28T08:23:48.558Z,29.77
2024-03-28T08:24:49.446Z,29.31
2024-03-28T08:25:48.533Z,29.03
2024-03-28T08:26:48.562Z,28.78
2024-03-28T08:27:48.499Z,28.96
2024-03-28T08:28:48.495Z,29.71
2024-03-28T08:29:48.473Z,31.27
2024-03-28T08:30:48.496Z,34.00
2024-03-28T08:31:48.572Z,36.30
2024-03-28T08:32:48.430Z,38.44
2024-03-28T08:33:48.405Z,40.32
2024-03-28T08:34:48.425Z,41.94
2024-03-28T08:35:48.413Z,41.71
2024-03-28T08:36:48.383Z,43.46
2024-03-28T08:37:48.400Z,44.89
2024-03-28T08:38:48.403Z,45.23
2024-03-28T08:39:48.399Z,41.28
2024-03-28T08:40:48.315Z,42.99
2024-03-28T08:41:48.388Z,45.04
2024-03-28T08:42:48.297Z,46.53
2024-03-28T08:43:48.288Z,47.64
2024-03-28T08:44:48.320Z,48.44
2024-03-28T08:45:48.311Z,49.07
2024-03-28T08:46:48.262Z,49.67
2024-03-28T08:47:48.419Z,50.02
2024-03-28T08:48:48.284Z,50.78
2024-03-28T08:49:48.310Z,50.56
2024-03-28T08:50:48.196Z,48.29
2024-03-28T08:51:48.192Z,49.32
2024-03-28T08:52:48.170Z,49.91
2024-03-28T08:53:48.157Z,50.75
2024-03-28T08:54:48.144Z,51.56
2024-03-28T08:55:48.146Z,51.76
2024-03-28T08:56:48.963Z,51.61
2024-03-28T08:57:48.102Z,52.14
2024-03-28T08:58:48.119Z,52.55
2024-03-28T08:59:48.080Z,53.09
2024-03-28T09:00:48.066Z,53.74
2024-03-28T09:01:48.089Z,54.42
2024-03-28T09:02:48.040Z,54.96
2024-03-28T09:03:48.021Z,55.32
2024-03-28T09:04:48.026Z,55.42
2024-03-28T09:05:47.995Z,55.53
2024-03-28T09:06:47.974Z,55.50
2024-03-28T09:07:47.994Z,55.27
2024-03-28T09:08:47.942Z,53.26
2024-03-28T09:09:48.038Z,53.99
2024-03-28T09:10:47.959Z,54.50
2024-03-28T09:11:47.924Z,54.78
2024-03-28T09:12:47.908Z,53.96
2024-03-28T09:13:47.911Z,51.13
2024-03-28T09:14:47.899Z,47.71
2024-03-28T09:15:47.933Z,45.04
2024-03-28T09:16:47.857Z,43.11
2024-03-28T09:17:47.867Z,42.97
2024-03-28T09:18:49.055Z,45.13
2024-03-28T09:19:47.804Z,47.49
2024-03-28T09:20:47.792Z,49.35
2024-03-28T09:21:47.782Z,50.82
2024-03-28T09:22:47.802Z,52.07
2024-03-28T09:23:47.758Z,52.93
2024-03-28T09:24:47.750Z,53.64
2024-03-28T09:25:47.898Z,54.26
2024-03-28T09:26:47.707Z,54.88
2024-03-28T09:27:47.696Z,55.53
2024-03-28T09:28:47.690Z,56.05
2024-03-28T09:29:47.684Z,56.49
2024-03-28T09:30:47.661Z,56.98
2024-03-28T09:31:47.681Z,54.49
2024-03-28T09:32:47.635Z,54.36
2024-03-28T09:33:47.635Z,54.80
2024-03-28T09:34:47.625Z,55.41
2024-03-28T09:35:47.617Z,55.99
2024-03-28T09:36:47.584Z,56.57
2024-03-28T09:37:47.603Z,57.05
2024-03-28T09:38:48.403Z,56.70
2024-03-28T09:39:47.606Z,55.98
2024-03-28T09:40:47.622Z,56.24
2024-03-28T09:41:47.525Z,57.32
2024-03-28T09:42:47.539Z,58.22
2024-03-28T09:43:48.432Z,58.67
2024-03-28T09:44:47.733Z,59.03
2024-03-28T09:45:47.936Z,59.25
2024-03-28T09:46:50.229Z,59.24
2024-03-28T09:47:47.455Z,59.37
2024-03-28T09:48:47.425Z,59.47
2024-03-28T09:49:47.423Z,59.34
2024-03-28T09:50:48.430Z,59.34
2024-03-28T09:51:47.432Z,59.44
2024-03-28T09:52:47.394Z,59.57
2024-03-28T09:53:47.384Z,59.64
2024-03-28T09:54:47.370Z,59.76
2024-03-28T09:55:47.924Z,59.19
2024-03-28T09:56:47.332Z,58.77
2024-03-28T09:57:47.313Z,59.28
2024-03-28T09:58:47.290Z,59.67
2024-03-28T09:59:47.306Z,59.98
2024-03-28T10:00:47.296Z,60.09
2024-03-28T10:01:47.274Z,60.13
2024-03-28T10:02:47.258Z,59.98
2024-03-28T10:03:47.322Z,60.07
2024-03-28T10:04:47.254Z,60.27
2024-03-28T10:05:47.255Z,60.59
2024-03-28T10:06:47.203Z,60.95
2024-03-28T10:07:47.188Z,61.18
2024-03-28T10:08:47.184Z,61.22
2024-03-28T10:09:47.161Z,61.03
2024-03-28T10:10:47.446Z,60.99
2024-03-28T10:11:47.150Z,60.87
2024-03-28T10:12:47.162Z,60.64
2024-03-28T10:13:47.146Z,60.26
2024-03-28T10:14:47.215Z,59.98
2024-03-28T10:15:47.090Z,59.67
2024-03-28T10:16:47.096Z,59.53
2024-03-28T10:17:47.058Z,59.60
2024-03-28T10:18:47.053Z,59.82
2024-03-28T10:19:47.057Z,60.02
2024-03-28T10:20:47.018Z,60.01
2024-03-28T10:21:47.089Z,59.79
2024-03-28T10:22:47.044Z,59.47
2024-03-28T10:23:47.028Z,59.18
2024-03-28T10:24:46.999Z,58.82
2024-03-28T10:25:47.002Z,58.45
2024-03-28T10:26:47.055Z,58.06
2024-03-28T10:27:46.988Z,57.66
2024-03-28T10:28:47.021Z,57.36
2024-03-28T10:29:47.037Z,57.16
2024-03-28T10:30:47.086Z,56.97
2024-03-28T10:31:47.098Z,56.75
2024-03-28T10:32:47.597Z,56.65
2024-03-28T10:33:47.105Z,56.69
2024-03-28T10:34:47.145Z,56.78
2024-03-28T10:35:47.364Z,56.89
2024-03-28T10:36:47.380Z,57.04
2024-03-28T10:37:56.126Z,57.19
2024-03-28T10:38:46.804Z,56.89
2024-03-28T10:39:46.791Z,57.19
2024-03-28T10:40:46.779Z,57.42
2024-03-28T10:41:46.801Z,57.34
2024-03-28T10:42:46.738Z,57.42
2024-03-28T10:43:46.730Z,57.35
2024-03-28T10:44:46.727Z,57.27
2024-03-28T10:45:46.722Z,57.23
2024-03-28T10:46:46.733Z,57.20
2024-03-28T10:47:46.681Z,57.20
2024-03-28T10:48:46.669Z,57.35
2024-03-28T10:49:48.540Z,57.56
2024-03-28T10:50:46.644Z,57.89
2024-03-28T10:51:46.652Z,58.25
2024-03-28T10:52:46.618Z,58.35
2024-03-28T10:53:46.617Z,58.29
2024-03-28T10:54:46.608Z,58.15
2024-03-28T10:55:46.587Z,58.08
2024-03-28T10:56:46.581Z,58.00
2024-03-28T10:57:47.033Z,57.94
2024-03-28T10:58:46.539Z,57.90
2024-03-28T10:59:46.531Z,58.00
2024-03-28T11:00:49.633Z,58.16
2024-03-28T11:01:46.531Z,58.34
2024-03-28T11:02:46.540Z,58.35
2024-03-28T11:03:46.480Z,58.28
2024-03-28T11:04:46.510Z,58.19
2024-03-28T11:05:46.452Z,58.19
2024-03-28T11:06:46.452Z,58.16
2024-03-28T11:07:46.445Z,58.17
2024-03-28T11:08:46.440Z,58.20
2024-03-28T11:09:46.423Z,58.34
2024-03-28T11:10:46.392Z,58.16
2024-03-28T11:11:46.383Z,57.79
2024-03-28T11:12:46.389Z,57.34
2024-03-28T11:13:46.354Z,57.04
2024-03-28T11:14:46.352Z,56.76
2024-03-28T11:15:46.354Z,56.62
2024-03-28T11:16:46.325Z,56.56
2024-03-28T11:17:46.323Z,56.44
2024-03-28T11:18:46.309Z,56.25
2024-03-28T11:19:46.295Z,56.09
2024-03-28T11:20:46.296Z,56.15
2024-03-28T11:21:46.282Z,56.12
2024-03-28T11:22:46.273Z,55.89
2024-03-28T11:23:46.221Z,55.64
2024-03-28T11:24:46.218Z,55.46
2024-03-28T11:25:46.270Z,55.10
2024-03-28T11:26:46.184Z,54.50
2024-03-28T11:27:46.250Z,53.76
2024-03-28T11:28:46.183Z,53.09
2024-03-28T11:29:46.158Z,52.74
2024-03-28T11:30:46.200Z,52.39
2024-03-28T11:31:46.147Z,52.26
2024-03-28T11:32:46.149Z,52.30
2024-03-28T11:33:46.166Z,52.61
2024-03-28T11:34:46.079Z,52.76
2024-03-28T11:35:46.080Z,52.38
2024-03-28T11:36:46.066Z,52.15
2024-03-28T11:37:46.044Z,51.96
2024-03-28T11:38:46.055Z,51.76
2024-03-28T11:39:46.031Z,51.42
2024-03-28T11:40:46.002Z,50.92
2024-03-28T11:41:46.016Z,50.29
2024-03-28T11:42:46.991Z,49.64
2024-03-28T11:43:45.974Z,49.02
2024-03-28T11:44:45.964Z,48.65
2024-03-28T11:45:45.949Z,47.29
2024-03-28T11:46:45.986Z,45.61
2024-03-28T11:47:46.017Z,44.82
2024-03-28T11:48:45.932Z,44.18
2024-03-28T11:49:45.952Z,43.34
2024-03-28T11:50:45.870Z,42.38
2024-03-28T11:51:45.877Z,41.31
2024-03-28T11:52:45.859Z,40.36
2024-03-28T11:53:56.851Z,39.65
2024-03-28T11:54:45.842Z,39.08
2024-03-28T11:55:45.830Z,38.45
2024-03-28T11:56:45.814Z,37.76
2024-03-28T11:57:45.855Z,37.19
2024-03-28T11:58:45.801Z,36.67
2024-03-28T11:59:45.768Z,36.31
2024-03-28T12:00:45.750Z,35.88
2024-03-28T12:01:45.736Z,35.47
2024-03-28T12:02:45.723Z,34.96
2024-03-28T12:03:45.912Z,34.42
2024-03-28T12:04:45.688Z,33.95
2024-03-28T12:05:45.677Z,33.53
2024-03-28T12:06:45.675Z,33.19
2024-03-28T12:07:45.720Z,32.85
2024-03-28T12:08:45.658Z,32.44
2024-03-28T12:09:45.629Z,32.10
2024-03-28T12:10:45.629Z,31.82
2024-03-28T12:11:45.612Z,31.55
2024-03-28T12:12:45.604Z,31.38
2024-03-28T12:13:45.853Z,31.26
2024-03-28T12:14:45.580Z,31.15
2024-03-28T12:15:45.553Z,31.05
2024-03-28T12:16:45.553Z,30.93
2024-03-28T12:17:45.535Z,30.78
2024-03-28T12:18:45.516Z,30.68
2024-03-28T12:19:45.525Z,30.54
2024-03-28T12:20:45.467Z,30.52
2024-03-28T12:21:45.495Z,30.52
2024-03-28T12:22:45.466Z,30.36
2024-03-28T12:23:45.447Z,30.09
2024-03-28T12:24:45.448Z,29.87
2024-03-28T12:25:45.431Z,29.57
2024-03-28T12:26:45.413Z,29.28
2024-03-28T12:27:45.401Z,28.97
2024-03-28T12:28:45.401Z,28.70
2024-03-28T12:29:45.382Z,28.56
2024-03-28T12:30:45.369Z,28.50
2024-03-28T12:31:45.343Z,28.51
2024-03-28T12:32:45.318Z,28.53
2024-03-28T12:33:45.313Z,28.51
2024-03-28T12:34:45.310Z,28.58
2024-03-28T12:35:45.301Z,28.62
2024-03-28T12:36:45.265Z,28.63
2024-03-28T12:37:45.261Z,28.59
2024-03-28T12:38:45.248Z,28.44
2024-03-28T12:39:45.259Z,28.32
2024-03-28T12:40:45.305Z,28.16
2024-03-28T12:41:45.214Z,27.99
2024-03-28T12:42:46.875Z,27.77
2024-03-28T12:43:45.183Z,27.54
2024-03-28T12:44:45.164Z,27.42
2024-03-28T12:45:45.234Z,27.23
2024-03-28T12:46:45.139Z,27.05
2024-03-28T12:47:45.121Z,26.95
2024-03-28T12:48:45.114Z,26.86
2024-03-28T12:49:45.150Z,26.77
2024-03-28T12:50:45.091Z,26.76
2024-03-28T12:51:45.081Z,26.77
2024-03-28T12:52:45.054Z,26.79